createdAt,value
2018-07-16T00:00:51.734Z,16.40
2018-07-16T00:03:21.031Z,16.50
2018-07-16T00:05:49.706Z,16.40
2018-07-16T00:08:18.360Z,16.40
2018-07-16T00:10:47.031Z,16.40
2018-07-16T00:13:15.731Z,16.40
2018-07-16T00:15:44.368Z,16.40
2018-07-16T00:18:13.075Z,16.40
2018-07-16T00:20:41.722Z,16.40
2018-07-16T00:23:10.415Z,16.30
2018-07-16T00:25:39.069Z,16.30
2018-07-16T00:28:07.764Z,16.20
2018-07-16T00:30:36.462Z,16.20
2018-07-16T00:33:05.137Z,16.20
2018-07-16T00:35:33.849Z,16.30
2018-07-16T00:38:02.500Z,16.30
2018-07-16T00:40:31.287Z,16.30
2018-07-16T00:42:59.965Z,16.40
2018-07-16T00:45:28.627Z,16.40
2018-07-16T00:47:57.316Z,16.40
2018-07-16T00:50:25.952Z,16.40
2018-07-16T00:52:54.651Z,16.40
2018-07-16T00:55:23.289Z,16.50
2018-07-16T00:57:52.262Z,16.50
2018-07-16T01:00:20.914Z,16.50
2018-07-16T01:02:49.550Z,16.50
2018-07-16T01:05:18.234Z,16.50
2018-07-16T01:07:46.914Z,16.50
2018-07-16T01:10:15.599Z,16.40
2018-07-16T01:12:44.251Z,16.40
2018-07-16T01:15:12.948Z,16.40
2018-07-16T01:17:41.610Z,16.40
2018-07-16T01:20:10.289Z,16.40
2018-07-16T01:22:38.978Z,16.40
2018-07-16T01:25:07.613Z,16.40
2018-07-16T01:27:36.278Z,16.40
2018-07-16T01:30:05.051Z,16.40
2018-07-16T01:32:33.895Z,16.40
2018-07-16T01:35:02.552Z,16.40
2018-07-16T01:37:31.203Z,16.40
2018-07-16T01:39:59.887Z,16.40
2018-07-16T01:42:28.553Z,16.40
2018-07-16T01:44:57.240Z,16.40
2018-07-16T01:47:25.897Z,16.40
2018-07-16T01:49:54.753Z,16.40
2018-07-16T01:52:23.416Z,16.40
2018-07-16T01:54:52.271Z,16.40
2018-07-16T01:57:20.964Z,16.50
2018-07-16T01:59:49.637Z,16.40
2018-07-16T02:02:18.298Z,16.40
2018-07-16T02:04:47.053Z,16.40
2018-07-16T02:07:15.743Z,16.40
2018-07-16T02:09:44.437Z,16.40
2018-07-16T02:12:13.149Z,16.40
2018-07-16T02:14:41.791Z,16.30
2018-07-16T02:17:10.475Z,16.30
2018-07-16T02:19:39.187Z,16.30
2018-07-16T02:22:07.872Z,16.30
2018-07-16T02:24:36.553Z,16.30
2018-07-16T02:27:05.256Z,16.30
2018-07-16T02:29:33.925Z,16.30
2018-07-16T02:32:02.630Z,16.30
2018-07-16T02:34:31.298Z,16.20
2018-07-16T02:36:59.995Z,16.20
2018-07-16T02:39:28.643Z,16.10
2018-07-16T02:41:57.335Z,16.00
2018-07-16T02:44:26.013Z,16.00
2018-07-16T02:46:54.676Z,15.90
2018-07-16T02:49:23.363Z,15.90
2018-07-16T02:51:52.052Z,15.80
2018-07-16T02:54:20.755Z,15.90
2018-07-16T02:56:49.455Z,15.80
2018-07-16T02:59:18.125Z,15.70
2018-07-16T03:01:46.833Z,15.70
2018-07-16T03:04:15.521Z,15.70
2018-07-16T03:06:44.228Z,15.60
2018-07-16T03:09:12.886Z,15.70
2018-07-16T03:11:41.569Z,15.70
2018-07-16T03:14:10.237Z,15.70
2018-07-16T03:16:38.963Z,15.80
2018-07-16T03:19:07.666Z,15.70
2018-07-16T03:21:36.412Z,15.70
2018-07-16T03:24:05.193Z,15.70
2018-07-16T03:26:33.892Z,15.70
2018-07-16T03:29:02.626Z,15.70
2018-07-16T03:31:31.432Z,15.80
2018-07-16T03:34:00.108Z,15.80
2018-07-16T03:36:28.775Z,15.80
2018-07-16T03:38:57.478Z,15.80
2018-07-16T03:41:26.142Z,15.80
2018-07-16T03:43:54.844Z,15.90
2018-07-16T03:46:23.527Z,15.90
2018-07-16T03:48:52.214Z,16.00
2018-07-16T03:51:20.866Z,16.00
2018-07-16T03:53:49.530Z,16.00
2018-07-16T03:56:18.213Z,16.00
2018-07-16T03:58:46.915Z,16.00
2018-07-16T04:01:15.617Z,16.10
2018-07-16T04:03:44.277Z,16.10
2018-07-16T04:06:12.982Z,16.10
2018-07-16T04:08:41.638Z,16.10
2018-07-16T04:11:10.329Z,16.10
2018-07-16T04:13:39.036Z,16.10
2018-07-16T04:16:07.801Z,16.20
2018-07-16T04:18:36.498Z,16.10
2018-07-16T04:21:05.167Z,16.10
2018-07-16T04:23:33.865Z,16.10
2018-07-16T04:26:02.548Z,16.10
2018-07-16T04:28:31.200Z,16.10
2018-07-16T04:31:00.055Z,16.10
2018-07-16T04:33:28.650Z,16.10
2018-07-16T04:35:57.326Z,16.10
2018-07-16T04:38:26.026Z,16.10
2018-07-16T04:40:54.758Z,16.20
2018-07-16T04:43:23.448Z,16.30
2018-07-16T04:45:52.149Z,16.30
2018-07-16T04:48:20.814Z,16.30
2018-07-16T04:50:49.473Z,16.30
2018-07-16T04:53:18.200Z,16.30
2018-07-16T04:55:46.873Z,16.30
2018-07-16T04:58:15.591Z,16.40
2018-07-16T05:00:44.237Z,16.40
2018-07-16T05:03:12.951Z,16.50
2018-07-16T05:05:41.601Z,16.50
2018-07-16T05:08:10.282Z,16.60
2018-07-16T05:10:38.973Z,16.60
2018-07-16T05:13:07.698Z,16.60
2018-07-16T05:15:36.394Z,16.60
2018-07-16T05:18:05.121Z,16.60
2018-07-16T05:20:33.796Z,16.60
2018-07-16T05:23:02.555Z,16.70
2018-07-16T05:25:31.416Z,16.90
2018-07-16T05:28:00.115Z,16.80
2018-07-16T05:30:28.819Z,16.90
2018-07-16T05:32:57.494Z,16.90
2018-07-16T05:35:26.162Z,16.90
2018-07-16T05:37:54.818Z,17.00
2018-07-16T05:40:23.568Z,17.00
2018-07-16T05:42:52.212Z,17.10
2018-07-16T05:45:20.944Z,17.10
2018-07-16T05:47:49.596Z,17.10
2018-07-16T05:50:18.319Z,17.20
2018-07-16T05:52:46.996Z,17.30
2018-07-16T05:55:15.682Z,17.20
2018-07-16T05:57:44.415Z,17.30
2018-07-16T06:00:13.081Z,17.20
2018-07-16T06:02:41.829Z,17.30
2018-07-16T06:05:10.482Z,17.40
2018-07-16T06:07:39.178Z,17.40
2018-07-16T06:10:07.866Z,17.40
2018-07-16T06:12:36.501Z,17.40
2018-07-16T06:15:05.288Z,17.40
2018-07-16T06:17:33.942Z,17.40
2018-07-16T06:20:02.627Z,17.40
2018-07-16T06:22:31.325Z,17.40
2018-07-16T06:25:00.033Z,17.40
2018-07-16T06:27:28.716Z,17.40
2018-07-16T06:29:57.384Z,17.40
2018-07-16T06:32:26.109Z,17.50
2018-07-16T06:34:54.749Z,17.50
2018-07-16T06:37:23.460Z,17.60
2018-07-16T06:39:52.104Z,17.70
2018-07-16T06:42:21.357Z,17.80
2018-07-16T06:44:50.042Z,17.80
2018-07-16T06:47:18.711Z,17.90
2018-07-16T06:49:47.427Z,17.90
2018-07-16T06:52:22.717Z,18.00
2018-07-16T06:54:51.415Z,18.10
2018-07-16T06:57:20.113Z,18.20
2018-07-16T06:59:48.798Z,18.20
2018-07-16T07:02:17.483Z,18.30
2018-07-16T07:04:46.158Z,18.40
2018-07-16T07:07:14.866Z,18.50
2018-07-16T07:09:43.662Z,18.50
2018-07-16T07:12:12.352Z,18.70
2018-07-16T07:14:41.038Z,18.70
2018-07-16T07:17:09.922Z,18.80
2018-07-16T07:19:38.594Z,18.80
2018-07-16T07:22:07.414Z,18.80
2018-07-16T07:24:36.073Z,19.00
2018-07-16T07:27:04.943Z,19.00
2018-07-16T07:29:33.605Z,19.10
2018-07-16T07:32:02.314Z,19.00
2018-07-16T07:34:30.990Z,19.00
2018-07-16T07:36:59.677Z,19.00
2018-07-16T07:39:28.320Z,18.90
2018-07-16T07:41:57.048Z,19.00
2018-07-16T07:44:25.750Z,19.00
2018-07-16T07:46:54.618Z,19.00
2018-07-16T07:49:23.307Z,19.00
2018-07-16T07:51:52.047Z,19.10
2018-07-16T07:54:20.849Z,19.10
2018-07-16T07:56:49.434Z,19.10
2018-07-16T07:59:18.161Z,19.20
2018-07-16T08:01:46.853Z,19.20
2018-07-16T08:04:15.545Z,19.20
2018-07-16T08:06:50.308Z,19.20
2018-07-16T08:09:19.028Z,19.20
2018-07-16T08:11:47.711Z,19.30
2018-07-16T08:14:16.497Z,19.40
2018-07-16T08:16:45.210Z,19.60
2018-07-16T08:19:13.947Z,19.80
2018-07-16T08:21:42.658Z,20.00
2018-07-16T08:24:11.345Z,20.20
2018-07-16T08:26:40.259Z,20.30
2018-07-16T08:29:08.935Z,20.20
2018-07-16T08:31:37.619Z,20.30
2018-07-16T08:34:06.893Z,20.50
2018-07-16T08:36:35.602Z,20.70
2018-07-16T08:39:05.522Z,20.90
2018-07-16T08:41:34.267Z,20.90
2018-07-16T08:44:03.290Z,21.20
2018-07-16T08:46:32.240Z,21.20
2018-07-16T08:49:00.972Z,21.40
2018-07-16T08:51:29.718Z,21.60
2018-07-16T08:53:58.418Z,21.80
2018-07-16T08:56:27.245Z,21.90
2018-07-16T08:58:56.065Z,22.00
2018-07-16T09:01:24.773Z,22.10
2018-07-16T09:03:53.495Z,22.20
2018-07-16T09:06:22.179Z,22.20
2018-07-16T09:08:50.839Z,22.20
2018-07-16T09:11:19.627Z,22.20
2018-07-16T09:13:48.210Z,22.40
2018-07-16T09:18:45.199Z,22.90
2018-07-16T09:21:13.857Z,22.90
2018-07-16T09:23:42.562Z,22.90
2018-07-16T09:26:11.285Z,23.00
2018-07-16T09:28:39.934Z,23.00
2018-07-16T09:31:08.943Z,23.00
2018-07-16T09:33:37.610Z,22.90
2018-07-16T09:36:06.316Z,23.00
2018-07-16T09:38:34.963Z,22.90
2018-07-16T09:43:32.021Z,23.00
2018-07-16T09:46:00.677Z,23.00
2018-07-16T09:48:29.369Z,23.00
2018-07-16T09:50:58.051Z,22.90
2018-07-16T09:53:26.729Z,22.90
2018-07-16T09:55:55.386Z,23.00
2018-07-16T09:58:24.095Z,23.30
2018-07-16T10:00:57.976Z,23.30
2018-07-16T10:03:26.675Z,23.30
2018-07-16T10:05:55.334Z,23.40
2018-07-16T10:08:24.028Z,23.50
2018-07-16T10:10:52.715Z,23.70
2018-07-16T10:13:21.382Z,23.60
2018-07-16T10:15:50.062Z,23.70
2018-07-16T10:18:18.698Z,23.70
2018-07-16T10:20:47.433Z,23.90
2018-07-16T10:23:16.088Z,24.00
2018-07-16T10:25:44.815Z,24.00
2018-07-16T10:28:13.466Z,23.90
2018-07-16T10:30:42.137Z,23.70
2018-07-16T10:33:10.878Z,23.80
2018-07-16T10:38:14.370Z,23.70
2018-07-16T10:40:43.045Z,23.80
2018-07-16T10:43:11.715Z,24.00
2018-07-16T10:45:40.425Z,23.90
2018-07-16T10:48:09.075Z,23.90
2018-07-16T10:50:37.864Z,23.90
2018-07-16T10:53:06.715Z,23.80
2018-07-16T10:55:35.416Z,24.00
2018-07-16T10:58:04.125Z,24.00
2018-07-16T11:00:32.814Z,24.20
2018-07-16T11:03:01.511Z,24.50
2018-07-16T11:05:30.296Z,24.70
2018-07-16T11:07:58.890Z,24.70
2018-07-16T11:10:27.721Z,24.80
2018-07-16T11:12:56.374Z,24.50
2018-07-16T11:15:25.047Z,24.70
2018-07-16T11:17:53.746Z,24.90
2018-07-16T11:20:22.498Z,25.00
2018-07-16T11:22:51.217Z,25.10
2018-07-16T11:25:19.922Z,25.10
2018-07-16T11:27:48.619Z,25.30
2018-07-16T11:30:17.282Z,25.40
2018-07-16T11:32:45.983Z,25.60
2018-07-16T11:35:14.695Z,25.30
2018-07-16T11:37:43.368Z,25.20
2018-07-16T11:40:12.066Z,25.40
2018-07-16T11:42:40.749Z,25.70
2018-07-16T11:45:09.472Z,26.10
2018-07-16T11:47:38.160Z,26.50
2018-07-16T11:50:06.886Z,26.80
2018-07-16T11:52:35.596Z,27.10
2018-07-16T11:57:32.602Z,27.40
2018-07-16T12:00:01.436Z,27.50
2018-07-16T12:02:30.116Z,27.40
2018-07-16T12:04:58.803Z,27.50
2018-07-16T12:07:27.517Z,27.30
2018-07-16T12:09:56.246Z,27.60
2018-07-16T12:12:24.952Z,27.80
2018-07-16T12:14:53.582Z,27.80
2018-07-16T12:17:28.765Z,28.10
2018-07-16T12:19:57.417Z,28.10
2018-07-16T12:22:26.163Z,28.10
2018-07-16T12:24:54.801Z,28.40
2018-07-16T12:27:23.515Z,28.30
2018-07-16T12:29:52.175Z,28.60
2018-07-16T12:32:20.835Z,28.90
2018-07-16T12:34:49.545Z,29.10
2018-07-16T12:37:18.286Z,29.00
2018-07-16T12:42:15.257Z,29.00
2018-07-16T12:47:12.269Z,29.00
2018-07-16T12:49:47.302Z,28.90
2018-07-16T12:52:15.966Z,29.00
2018-07-16T12:54:44.673Z,29.40
2018-07-16T12:57:13.365Z,30.00
2018-07-16T12:59:42.050Z,30.10
2018-07-16T13:02:10.962Z,29.40
2018-07-16T13:04:39.656Z,29.90
2018-07-16T13:07:08.374Z,29.80
2018-07-16T13:09:37.047Z,30.60
2018-07-16T13:12:05.735Z,31.00
2018-07-16T13:17:02.746Z,30.50
2018-07-16T13:19:31.409Z,29.60
2018-07-16T13:22:00.130Z,28.30
2018-07-16T13:24:28.854Z,28.40
2018-07-16T13:26:57.527Z,28.50
2018-07-16T13:29:26.220Z,28.80
2018-07-16T13:31:54.903Z,28.90
2018-07-16T13:34:23.594Z,28.70
2018-07-16T13:36:52.260Z,28.90
2018-07-16T13:39:20.949Z,29.60
2018-07-16T13:41:49.622Z,30.20
2018-07-16T13:44:18.327Z,30.80
2018-07-16T13:46:47.023Z,31.50
2018-07-16T13:49:15.734Z,32.00
2018-07-16T13:54:13.418Z,33.30
2018-07-16T13:56:42.136Z,33.00
2018-07-16T13:59:11.011Z,32.50
2018-07-16T14:01:40.230Z,31.90
2018-07-16T14:04:08.890Z,31.20
2018-07-16T14:09:31.032Z,29.50
2018-07-16T14:11:59.847Z,29.00
2018-07-16T14:14:28.623Z,28.50
2018-07-16T14:16:57.333Z,28.20
2018-07-16T14:19:26.036Z,27.90
2018-07-16T14:21:54.752Z,27.90
2018-07-16T14:24:23.486Z,28.00
2018-07-16T14:26:52.154Z,28.90
2018-07-16T14:29:20.836Z,30.50
2018-07-16T14:31:50.054Z,31.60
2018-07-16T14:34:18.750Z,32.10
2018-07-16T14:36:47.491Z,32.60
2018-07-16T14:39:16.251Z,33.40
2018-07-16T14:41:45.026Z,33.20
2018-07-16T14:44:13.733Z,33.30
2018-07-16T14:46:49.056Z,33.70
2018-07-16T14:49:18.070Z,33.90
2018-07-16T14:51:46.750Z,34.00
2018-07-16T14:54:15.424Z,34.10
2018-07-16T14:56:44.133Z,34.00
2018-07-16T14:59:12.794Z,32.80
2018-07-16T15:01:41.514Z,32.00
2018-07-16T15:04:10.212Z,31.10
2018-07-16T15:06:38.865Z,31.00
2018-07-16T15:09:09.126Z,31.10
2018-07-16T15:11:37.837Z,31.80
2018-07-16T15:14:08.136Z,32.30
2018-07-16T15:16:36.844Z,33.00
2018-07-16T15:19:05.581Z,33.70
2018-07-16T15:21:34.438Z,34.00
2018-07-16T15:24:03.002Z,34.20
2018-07-16T15:26:32.161Z,33.60
2018-07-16T15:29:00.858Z,33.80
2018-07-16T15:31:29.572Z,34.10
2018-07-16T15:33:58.325Z,34.70
2018-07-16T15:36:26.982Z,35.40
2018-07-16T15:38:55.673Z,35.90
2018-07-16T15:41:24.428Z,34.60
2018-07-16T15:43:53.122Z,33.30
2018-07-16T15:46:21.822Z,31.50
2018-07-16T15:48:50.524Z,30.20
2018-07-16T15:51:19.202Z,29.40
2018-07-16T15:53:48.000Z,28.80
2018-07-16T15:56:16.683Z,28.50
2018-07-16T15:58:51.647Z,28.10
2018-07-16T16:03:48.697Z,27.70
2018-07-16T16:06:17.466Z,27.60
2018-07-16T16:08:46.122Z,27.50
2018-07-16T16:11:14.841Z,27.00
2018-07-16T16:13:43.526Z,26.70
2018-07-16T16:16:12.235Z,26.60
2018-07-16T16:18:40.920Z,26.40
2018-07-16T16:21:09.610Z,26.10
2018-07-16T16:23:38.314Z,25.80
2018-07-16T16:26:07.062Z,25.70
2018-07-16T16:28:35.731Z,26.00
2018-07-16T16:31:04.438Z,26.20
2018-07-16T16:33:33.142Z,26.00
2018-07-16T16:36:01.930Z,25.90
2018-07-16T16:38:30.624Z,25.90
2018-07-16T16:40:59.889Z,26.00
2018-07-16T16:43:28.662Z,27.10
2018-07-16T16:45:57.337Z,28.40
2018-07-16T16:48:26.026Z,29.10
2018-07-16T16:50:54.693Z,29.70
2018-07-16T16:53:23.429Z,29.90
2018-07-16T16:55:52.182Z,30.40
2018-07-16T16:58:20.833Z,30.60
2018-07-16T17:00:50.065Z,29.70
2018-07-16T17:03:18.812Z,29.50
2018-07-16T17:10:44.062Z,30.70
2018-07-16T17:13:12.764Z,30.50
2018-07-16T17:15:41.443Z,30.70
2018-07-16T17:18:10.197Z,31.10
2018-07-16T17:20:38.849Z,31.20
2018-07-16T17:23:07.600Z,31.20
2018-07-16T17:25:36.285Z,31.30
2018-07-16T17:28:05.007Z,31.40
2018-07-16T17:30:33.711Z,31.10
2018-07-16T17:33:04.424Z,30.60
2018-07-16T17:35:33.463Z,29.50
2018-07-16T17:38:02.158Z,28.80
2018-07-16T17:42:59.261Z,27.30
2018-07-16T17:45:27.939Z,26.90
2018-07-16T17:47:56.622Z,26.30
2018-07-16T17:50:25.320Z,25.90
2018-07-16T17:52:53.987Z,25.50
2018-07-16T17:55:22.686Z,25.20
2018-07-16T17:57:51.361Z,25.00
2018-07-16T18:00:20.116Z,24.90
2018-07-16T18:02:48.808Z,24.70
2018-07-16T18:05:18.299Z,24.70
2018-07-16T18:07:47.052Z,24.60
2018-07-16T18:10:16.260Z,24.50
2018-07-16T18:12:44.965Z,24.50
2018-07-16T18:15:13.745Z,24.60
2018-07-16T18:17:42.518Z,24.60
2018-07-16T18:22:39.546Z,24.50
2018-07-16T18:25:09.335Z,24.50
2018-07-16T18:27:38.886Z,24.40
2018-07-16T18:30:07.575Z,24.30
2018-07-16T18:32:36.221Z,24.30
2018-07-16T18:35:05.011Z,24.20
2018-07-16T18:37:33.929Z,24.10
2018-07-16T18:40:03.238Z,24.10
2018-07-16T18:42:31.958Z,23.90
2018-07-16T18:45:00.673Z,23.80
2018-07-16T18:47:29.346Z,23.70
2018-07-16T18:49:58.008Z,23.50
2018-07-16T18:52:26.686Z,23.40
2018-07-16T18:54:57.353Z,23.10
2018-07-16T18:57:26.034Z,23.00
2018-07-16T18:59:54.714Z,22.80
2018-07-16T19:04:51.741Z,22.60
2018-07-16T19:07:22.898Z,22.40
2018-07-16T19:09:52.257Z,22.30
2018-07-16T19:12:21.128Z,22.10
2018-07-16T19:14:49.866Z,22.00
2018-07-16T19:17:18.736Z,21.90
2018-07-16T19:22:15.820Z,21.60
2018-07-16T19:24:44.556Z,21.50
2018-07-16T19:27:13.245Z,21.40
2018-07-16T19:29:41.982Z,21.20
2018-07-16T19:32:10.697Z,21.10
2018-07-16T19:34:39.418Z,21.00
2018-07-16T19:37:08.653Z,20.90
2018-07-16T19:39:37.326Z,20.80
2018-07-16T19:42:06.073Z,20.80
2018-07-16T19:44:34.799Z,20.80
2018-07-16T19:47:03.534Z,20.70
2018-07-16T19:49:32.233Z,20.70
2018-07-16T19:52:00.943Z,20.60
2018-07-16T19:54:29.659Z,20.40
2018-07-16T19:56:58.424Z,20.30
2018-07-16T19:59:27.293Z,20.20
2018-07-16T20:01:55.946Z,20.00
2018-07-16T20:04:24.654Z,19.90
2018-07-16T20:06:56.225Z,19.80
2018-07-16T20:09:25.570Z,19.60
2018-07-16T20:11:54.271Z,19.50
2018-07-16T20:14:23.581Z,19.50
2018-07-16T20:16:52.574Z,19.40
2018-07-16T20:19:21.288Z,19.40
2018-07-16T20:21:50.053Z,19.30
2018-07-16T20:24:18.757Z,19.30
2018-07-16T20:26:47.536Z,19.20
2018-07-16T20:29:16.236Z,19.10
2018-07-16T20:31:44.905Z,19.00
2018-07-16T20:34:14.050Z,18.90
2018-07-16T20:36:42.728Z,18.90
2018-07-16T20:39:11.418Z,18.80
2018-07-16T20:41:40.149Z,18.70
2018-07-16T20:44:08.797Z,18.70
2018-07-16T20:46:37.494Z,18.70
2018-07-16T20:49:06.317Z,18.70
2018-07-16T20:51:34.962Z,18.70
2018-07-16T20:54:03.661Z,18.70
2018-07-16T20:56:32.363Z,18.70
2018-07-16T20:59:01.190Z,18.60
2018-07-16T21:01:29.885Z,18.50
2018-07-16T21:03:58.590Z,18.40
2018-07-16T21:06:27.278Z,18.30
2018-07-16T21:08:55.928Z,18.30
2018-07-16T21:11:24.614Z,18.20
2018-07-16T21:13:53.358Z,18.10
2018-07-16T21:16:22.052Z,18.00
2018-07-16T21:18:50.764Z,17.90
2018-07-16T21:21:19.477Z,17.80
2018-07-16T21:23:48.183Z,17.70
2018-07-16T21:26:16.853Z,17.70
2018-07-16T21:28:45.564Z,17.60
2018-07-16T21:31:14.223Z,17.60
2018-07-16T21:33:42.931Z,17.50
2018-07-16T21:36:11.594Z,17.50
2018-07-16T21:38:40.276Z,17.40
2018-07-16T21:41:08.977Z,17.40
2018-07-16T21:43:37.679Z,17.30
2018-07-16T21:46:06.502Z,17.30
2018-07-16T21:48:35.189Z,17.30
2018-07-16T21:51:03.869Z,17.20
2018-07-16T21:53:32.527Z,17.20
2018-07-16T21:56:01.240Z,17.10
2018-07-16T21:58:29.886Z,17.10
2018-07-16T22:00:58.576Z,17.20
2018-07-16T22:03:27.262Z,17.20
2018-07-16T22:05:55.970Z,17.20
2018-07-16T22:08:24.644Z,17.20
2018-07-16T22:10:53.363Z,17.20
2018-07-16T22:13:22.065Z,17.10
2018-07-16T22:15:50.763Z,17.10
2018-07-16T22:18:19.425Z,17.10
2018-07-16T22:20:48.098Z,17.10
2018-07-16T22:23:16.765Z,17.00
2018-07-16T22:25:45.886Z,17.00
2018-07-16T22:28:14.545Z,16.90
2018-07-16T22:30:43.482Z,16.90
2018-07-16T22:33:12.150Z,16.80
2018-07-16T22:35:40.817Z,16.80
2018-07-16T22:38:09.494Z,16.80
2018-07-16T22:40:38.196Z,16.80
2018-07-16T22:43:06.903Z,16.80
2018-07-16T22:45:35.543Z,16.90
2018-07-16T22:48:04.264Z,16.80
2018-07-16T22:50:32.906Z,16.80
2018-07-16T22:53:01.570Z,16.70
2018-07-16T22:55:30.218Z,16.60
2018-07-16T22:57:58.899Z,16.60
2018-07-16T23:00:27.555Z,16.50
2018-07-16T23:02:56.220Z,16.50
2018-07-16T23:05:24.968Z,16.40
2018-07-16T23:07:53.636Z,16.30
2018-07-16T23:10:22.346Z,16.30
2018-07-16T23:12:51.013Z,16.20
2018-07-16T23:15:19.717Z,16.10
2018-07-16T23:17:48.378Z,16.20
2018-07-16T23:20:17.045Z,16.10
2018-07-16T23:22:52.718Z,16.00
2018-07-16T23:25:21.909Z,16.00
2018-07-16T23:27:50.681Z,15.90
2018-07-16T23:30:19.381Z,15.80
2018-07-16T23:32:48.038Z,15.80
2018-07-16T23:35:17.351Z,15.80
2018-07-16T23:37:46.258Z,15.80
2018-07-16T23:40:14.976Z,15.70
2018-07-16T23:42:43.687Z,15.70
2018-07-16T23:45:12.359Z,15.70
2018-07-16T23:47:41.071Z,15.60
2018-07-16T23:50:09.721Z,15.60
2018-07-16T23:52:38.485Z,15.60
2018-07-16T23:55:07.196Z,15.60
2018-07-16T23:57:35.885Z,15.50
